sensor_id;sensor_type;location;lat;lon;timestamp;P1;durP1;ratioP1;P2;durP2;ratioP2
7813;SDS011;3952;48.364;16.022;2023-08-20T00:01:23;12.23;;;11.53;;
7813;SDS011;3952;48.364;16.022;2023-08-20T00:03:52;12.07;;;11.47;;
7813;SDS011;3952;48.364;16.022;2023-08-20T00:06:22;12.10;;;11.27;;
7813;SDS011;3952;48.364;16.022;2023-08-20T00:08:49;11.97;;;11.30;;
7813;SDS011;3952;48.364;16.022;2023-08-20T00:11:23;11.37;;;10.60;;
7813;SDS011;3952;48.364;16.022;2023-08-20T00:13:50;11.30;;;10.70;;
7813;SDS011;3952;48.364;16.022;2023-08-20T00:16:18;11.90;;;11.03;;
7813;SDS011;3952;48.364;16.022;2023-08-20T00:18:45;12.13;;;11.33;;
7813;SDS011;3952;48.364;16.022;2023-08-20T00:21:13;13.23;;;12.30;;
7813;SDS011;3952;48.364;16.022;2023-08-20T00:23:43;12.93;;;12.07;;
7813;SDS011;3952;48.364;16.022;2023-08-20T00:26:11;12.13;;;11.43;;
7813;SDS011;3952;48.364;16.022;2023-08-20T00:28:38;10.87;;;10.17;;
7813;SDS011;3952;48.364;16.022;2023-08-20T00:31:05;11.23;;;10.63;;
7813;SDS011;3952;48.364;16.022;2023-08-20T00:33:32;11.60;;;10.70;;
7813;SDS011;3952;48.364;16.022;2023-08-20T00:36:00;12.30;;;11.60;;
7813;SDS011;3952;48.364;16.022;2023-08-20T00:38:28;12.77;;;11.87;;
7813;SDS011;3952;48.364;16.022;2023-08-20T00:40:56;13.87;;;12.80;;
7813;SDS011;3952;48.364;16.022;2023-08-20T00:43:24;13.40;;;12.60;;
7813;SDS011;3952;48.364;16.022;2023-08-20T00:45:51;13.03;;;12.30;;
7813;SDS011;3952;48.364;16.022;2023-08-20T00:48:19;14.37;;;13.43;;
7813;SDS011;3952;48.364;16.022;2023-08-20T00:50:46;14.50;;;13.40;;
7813;SDS011;3952;48.364;16.022;2023-08-20T00:53:14;15.63;;;14.53;;
7813;SDS011;3952;48.364;16.022;2023-08-20T00:55:42;16.27;;;15.27;;
7813;SDS011;3952;48.364;16.022;2023-08-20T00:58:11;15.00;;;14.00;;
7813;SDS011;3952;48.364;16.022;2023-08-20T01:00:40;14.37;;;13.57;;
7813;SDS011;3952;48.364;16.022;2023-08-20T01:03:07;14.90;;;14.10;;
7813;SDS011;3952;48.364;16.022;2023-08-20T01:05:37;15.40;;;14.30;;
7813;SDS011;3952;48.364;16.022;2023-08-20T01:08:14;17.23;;;15.93;;
7813;SDS011;3952;48.364;16.022;2023-08-20T01:10:53;16.87;;;15.57;;
7813;SDS011;3952;48.364;16.022;2023-08-20T01:13:25;17.63;;;16.33;;
7813;SDS011;3952;48.364;16.022;2023-08-20T01:15:52;18.33;;;16.87;;
7813;SDS011;3952;48.364;16.022;2023-08-20T01:18:20;18.97;;;17.67;;
7813;SDS011;3952;48.364;16.022;2023-08-20T01:20:47;16.50;;;15.13;;
7813;SDS011;3952;48.364;16.022;2023-08-20T01:23:36;16.20;;;15.20;;
7813;SDS011;3952;48.364;16.022;2023-08-20T01:26:25;14.83;;;13.83;;
7813;SDS011;3952;48.364;16.022;2023-08-20T01:29:24;16.43;;;15.20;;
7813;SDS011;3952;48.364;16.022;2023-08-20T01:31:52;16.47;;;15.37;;
7813;SDS011;3952;48.364;16.022;2023-08-20T01:34:21;15.93;;;14.93;;
7813;SDS011;3952;48.364;16.022;2023-08-20T01:36:48;15.47;;;14.57;;
7813;SDS011;3952;48.364;16.022;2023-08-20T01:39:16;15.40;;;14.17;;
7813;SDS011;3952;48.364;16.022;2023-08-20T01:41:43;16.27;;;15.37;;
7813;SDS011;3952;48.364;16.022;2023-08-20T01:44:11;16.37;;;15.27;;
7813;SDS011;3952;48.364;16.022;2023-08-20T01:46:39;15.93;;;14.67;;
7813;SDS011;3952;48.364;16.022;2023-08-20T01:49:06;19.33;;;17.90;;
7813;SDS011;3952;48.364;16.022;2023-08-20T01:51:34;16.80;;;15.40;;
7813;SDS011;3952;48.364;16.022;2023-08-20T01:54:01;15.73;;;14.73;;
7813;SDS011;3952;48.364;16.022;2023-08-20T01:56:29;15.43;;;14.33;;
7813;SDS011;3952;48.364;16.022;2023-08-20T01:58:56;15.37;;;14.43;;
7813;SDS011;3952;48.364;16.022;2023-08-20T02:01:23;16.37;;;15.37;;
7813;SDS011;3952;48.364;16.022;2023-08-20T02:03:52;16.10;;;14.80;;
7813;SDS011;3952;48.364;16.022;2023-08-20T02:06:19;15.87;;;14.87;;
7813;SDS011;3952;48.364;16.022;2023-08-20T02:08:46;16.33;;;15.13;;
7813;SDS011;3952;48.364;16.022;2023-08-20T02:11:13;14.83;;;13.93;;
7813;SDS011;3952;48.364;16.022;2023-08-20T02:13:41;16.23;;;14.70;;
7813;SDS011;3952;48.364;16.022;2023-08-20T02:16:08;14.87;;;13.87;;
7813;SDS011;3952;48.364;16.022;2023-08-20T02:18:35;15.10;;;14.10;;
7813;SDS011;3952;48.364;16.022;2023-08-20T02:21:04;15.90;;;14.83;;
7813;SDS011;3952;48.364;16.022;2023-08-20T02:23:31;16.87;;;15.57;;
7813;SDS011;3952;48.364;16.022;2023-08-20T02:25:58;14.93;;;13.93;;
7813;SDS011;3952;48.364;16.022;2023-08-20T02:28:26;14.73;;;13.83;;
7813;SDS011;3952;48.364;16.022;2023-08-20T02:30:53;15.17;;;13.97;;
7813;SDS011;3952;48.364;16.022;2023-08-20T02:33:20;16.40;;;15.27;;
7813;SDS011;3952;48.364;16.022;2023-08-20T02:35:47;17.43;;;15.90;;
7813;SDS011;3952;48.364;16.022;2023-08-20T02:38:16;15.97;;;14.93;;
7813;SDS011;3952;48.364;16.022;2023-08-20T02:40:43;15.63;;;14.60;;
7813;SDS011;3952;48.364;16.022;2023-08-20T02:43:10;14.33;;;13.40;;
7813;SDS011;3952;48.364;16.022;2023-08-20T02:45:40;15.60;;;14.43;;
7813;SDS011;3952;48.364;16.022;2023-08-20T02:48:08;16.03;;;14.70;;
7813;SDS011;3952;48.364;16.022;2023-08-20T02:50:35;15.03;;;13.93;;
7813;SDS011;3952;48.364;16.022;2023-08-20T02:53:03;14.60;;;13.60;;
7813;SDS011;3952;48.364;16.022;2023-08-20T02:55:31;13.73;;;12.87;;
7813;SDS011;3952;48.364;16.022;2023-08-20T02:58:00;16.33;;;15.17;;
7813;SDS011;3952;48.364;16.022;2023-08-20T03:00:29;16.73;;;15.57;;
7813;SDS011;3952;48.364;16.022;2023-08-20T03:02:56;16.23;;;15.07;;
7813;SDS011;3952;48.364;16.022;2023-08-20T03:05:23;14.97;;;13.80;;
7813;SDS011;3952;48.364;16.022;2023-08-20T03:07:51;14.80;;;13.57;;
7813;SDS011;3952;48.364;16.022;2023-08-20T03:10:18;14.47;;;13.23;;
7813;SDS011;3952;48.364;16.022;2023-08-20T03:12:47;14.07;;;12.93;;
7813;SDS011;3952;48.364;16.022;2023-08-20T03:15:14;15.93;;;14.60;;
7813;SDS011;3952;48.364;16.022;2023-08-20T03:17:41;15.27;;;14.30;;
7813;SDS011;3952;48.364;16.022;2023-08-20T03:20:09;15.27;;;14.07;;
7813;SDS011;3952;48.364;16.022;2023-08-20T03:22:37;15.43;;;14.40;;
7813;SDS011;3952;48.364;16.022;2023-08-20T03:25:04;16.20;;;15.17;;
7813;SDS011;3952;48.364;16.022;2023-08-20T03:27:32;14.53;;;13.73;;
7813;SDS011;3952;48.364;16.022;2023-08-20T03:30:01;14.73;;;13.80;;
7813;SDS011;3952;48.364;16.022;2023-08-20T03:32:29;14.57;;;13.67;;
7813;SDS011;3952;48.364;16.022;2023-08-20T03:34:57;16.57;;;15.47;;
7813;SDS011;3952;48.364;16.022;2023-08-20T03:37:24;17.50;;;15.93;;
7813;SDS011;3952;48.364;16.022;2023-08-20T03:39:52;16.93;;;15.77;;
7813;SDS011;3952;48.364;16.022;2023-08-20T03:42:19;18.73;;;17.13;;
7813;SDS011;3952;48.364;16.022;2023-08-20T03:44:46;17.30;;;15.93;;
7813;SDS011;3952;48.364;16.022;2023-08-20T03:47:15;16.50;;;15.40;;
7813;SDS011;3952;48.364;16.022;2023-08-20T03:49:45;15.63;;;14.73;;
7813;SDS011;3952;48.364;16.022;2023-08-20T03:52:13;16.33;;;15.27;;
7813;SDS011;3952;48.364;16.022;2023-08-20T03:54:40;16.97;;;15.67;;
7813;SDS011;3952;48.364;16.022;2023-08-20T03:57:07;15.33;;;14.33;;
7813;SDS011;3952;48.364;16.022;2023-08-20T03:59:34;15.80;;;14.80;;
7813;SDS011;3952;48.364;16.022;2023-08-20T04:02:02;17.67;;;16.37;;
7813;SDS011;3952;48.364;16.022;2023-08-20T04:04:30;17.40;;;16.00;;
7813;SDS011;3952;48.364;16.022;2023-08-20T04:06:58;17.03;;;15.93;;
7813;SDS011;3952;48.364;16.022;2023-08-20T04:09:25;16.83;;;15.70;;
7813;SDS011;3952;48.364;16.022;2023-08-20T04:11:52;15.60;;;14.60;;
7813;SDS011;3952;48.364;16.022;2023-08-20T04:14:19;17.00;;;15.77;;
7813;SDS011;3952;48.364;16.022;2023-08-20T04:16:46;17.40;;;16.00;;
7813;SDS011;3952;48.364;16.022;2023-08-20T04:19:14;18.50;;;16.87;;
7813;SDS011;3952;48.364;16.022;2023-08-20T04:21:42;18.57;;;17.10;;
7813;SDS011;3952;48.364;16.022;2023-08-20T04:24:09;16.43;;;15.33;;
7813;SDS011;3952;48.364;16.022;2023-08-20T04:26:37;16.23;;;15.07;;
7813;SDS011;3952;48.364;16.022;2023-08-20T04:29:04;16.77;;;15.53;;
7813;SDS011;3952;48.364;16.022;2023-08-20T04:31:31;17.33;;;16.20;;
7813;SDS011;3952;48.364;16.022;2023-08-20T04:33:59;17.17;;;15.83;;
7813;SDS011;3952;48.364;16.022;2023-08-20T04:36:26;16.13;;;14.87;;
7813;SDS011;3952;48.364;16.022;2023-08-20T04:38:54;18.37;;;16.73;;
7813;SDS011;3952;48.364;16.022;2023-08-20T04:41:21;19.00;;;17.50;;
7813;SDS011;3952;48.364;16.022;2023-08-20T04:43:49;18.60;;;17.10;;
7813;SDS011;3952;48.364;16.022;2023-08-20T04:46:16;18.27;;;16.80;;
7813;SDS011;3952;48.364;16.022;2023-08-20T04:48:43;17.13;;;15.83;;
7813;SDS011;3952;48.364;16.022;2023-08-20T04:51:10;18.63;;;17.27;;
7813;SDS011;3952;48.364;16.022;2023-08-20T04:53:37;21.43;;;19.90;;
7813;SDS011;3952;48.364;16.022;2023-08-20T04:56:06;20.50;;;18.80;;
7813;SDS011;3952;48.364;16.022;2023-08-20T04:58:33;21.23;;;19.53;;
7813;SDS011;3952;48.364;16.022;2023-08-20T05:01:01;21.30;;;19.40;;
7813;SDS011;3952;48.364;16.022;2023-08-20T05:03:28;21.20;;;19.60;;
7813;SDS011;3952;48.364;16.022;2023-08-20T05:05:55;19.80;;;18.23;;
7813;SDS011;3952;48.364;16.022;2023-08-20T05:08:22;19.47;;;17.87;;
7813;SDS011;3952;48.364;16.022;2023-08-20T05:10:49;17.77;;;16.47;;
7813;SDS011;3952;48.364;16.022;2023-08-20T05:13:18;20.43;;;18.93;;
7813;SDS011;3952;48.364;16.022;2023-08-20T05:15:46;19.60;;;18.30;;
7813;SDS011;3952;48.364;16.022;2023-08-20T05:18:13;19.77;;;18.47;;
7813;SDS011;3952;48.364;16.022;2023-08-20T05:20:40;19.07;;;17.87;;
7813;SDS011;3952;48.364;16.022;2023-08-20T05:23:07;20.43;;;18.93;;
7813;SDS011;3952;48.364;16.022;2023-08-20T05:25:34;20.23;;;18.77;;
7813;SDS011;3952;48.364;16.022;2023-08-20T05:28:02;19.03;;;17.70;;
7813;SDS011;3952;48.364;16.022;2023-08-20T05:30:31;17.27;;;16.17;;
7813;SDS011;3952;48.364;16.022;2023-08-20T05:32:58;18.17;;;16.83;;
7813;SDS011;3952;48.364;16.022;2023-08-20T05:35:25;18.13;;;16.73;;
7813;SDS011;3952;48.364;16.022;2023-08-20T05:37:53;17.87;;;16.57;;
7813;SDS011;3952;48.364;16.022;2023-08-20T05:40:20;16.93;;;15.87;;
7813;SDS011;3952;48.364;16.022;2023-08-20T05:42:47;17.03;;;15.93;;
7813;SDS011;3952;48.364;16.022;2023-08-20T05:45:15;18.83;;;17.30;;
7813;SDS011;3952;48.364;16.022;2023-08-20T05:47:43;18.13;;;16.80;;
7813;SDS011;3952;48.364;16.022;2023-08-20T05:50:10;17.83;;;16.67;;
7813;SDS011;3952;48.364;16.022;2023-08-20T05:52:38;17.53;;;16.43;;
7813;SDS011;3952;48.364;16.022;2023-08-20T05:55:05;17.23;;;15.93;;
7813;SDS011;3952;48.364;16.022;2023-08-20T05:57:32;18.17;;;16.77;;
7813;SDS011;3952;48.364;16.022;2023-08-20T06:00:02;17.87;;;16.77;;
7813;SDS011;3952;48.364;16.022;2023-08-20T06:02:30;18.77;;;17.57;;
7813;SDS011;3952;48.364;16.022;2023-08-20T06:04:59;20.13;;;18.50;;
7813;SDS011;3952;48.364;16.022;2023-08-20T06:07:26;19.97;;;18.50;;
7813;SDS011;3952;48.364;16.022;2023-08-20T06:09:53;20.30;;;18.87;;
7813;SDS011;3952;48.364;16.022;2023-08-20T06:12:22;19.57;;;18.03;;
7813;SDS011;3952;48.364;16.022;2023-08-20T06:14:49;19.23;;;17.83;;
7813;SDS011;3952;48.364;16.022;2023-08-20T06:17:16;20.40;;;18.80;;
7813;SDS011;3952;48.364;16.022;2023-08-20T06:19:44;18.63;;;17.33;;
7813;SDS011;3952;48.364;16.022;2023-08-20T06:22:12;18.40;;;17.17;;
7813;SDS011;3952;48.364;16.022;2023-08-20T06:24:40;16.83;;;15.77;;
7813;SDS011;3952;48.364;16.022;2023-08-20T06:27:07;18.00;;;16.83;;
7813;SDS011;3952;48.364;16.022;2023-08-20T06:29:34;17.80;;;16.43;;
7813;SDS011;3952;48.364;16.022;2023-08-20T06:32:02;20.43;;;18.63;;
7813;SDS011;3952;48.364;16.022;2023-08-20T06:34:30;18.60;;;17.40;;
7813;SDS011;3952;48.364;16.022;2023-08-20T06:36:57;18.67;;;17.38;;
7813;SDS011;3952;48.364;16.022;2023-08-20T06:39:25;18.85;;;17.50;;
7813;SDS011;3952;48.364;16.022;2023-08-20T06:41:53;17.38;;;16.33;;
7813;SDS011;3952;48.364;16.022;2023-08-20T06:44:20;17.65;;;16.45;;
7813;SDS011;3952;48.364;16.022;2023-08-20T06:46:47;16.50;;;15.48;;
7813;SDS011;3952;48.364;16.022;2023-08-20T06:49:14;16.27;;;15.18;;
7813;SDS011;3952;48.364;16.022;2023-08-20T06:51:41;16.10;;;15.10;;
7813;SDS011;3952;48.364;16.022;2023-08-20T06:54:08;14.57;;;13.77;;
7813;SDS011;3952;48.364;16.022;2023-08-20T06:56:37;14.63;;;13.77;;
7813;SDS011;3952;48.364;16.022;2023-08-20T06:59:04;14.77;;;13.73;;
7813;SDS011;3952;48.364;16.022;2023-08-20T07:01:31;14.07;;;13.20;;
7813;SDS011;3952;48.364;16.022;2023-08-20T07:03:58;14.00;;;13.20;;
7813;SDS011;3952;48.364;16.022;2023-08-20T07:06:26;13.02;;;12.13;;
7813;SDS011;3952;48.364;16.022;2023-08-20T07:08:53;13.70;;;12.80;;
7813;SDS011;3952;48.364;16.022;2023-08-20T07:11:20;12.80;;;12.10;;
7813;SDS011;3952;48.364;16.022;2023-08-20T07:13:49;13.10;;;12.40;;
7813;SDS011;3952;48.364;16.022;2023-08-20T07:16:16;12.73;;;11.93;;
7813;SDS011;3952;48.364;16.022;2023-08-20T07:18:43;13.30;;;12.48;;
7813;SDS011;3952;48.364;16.022;2023-08-20T07:21:11;13.18;;;12.27;;
7813;SDS011;3952;48.364;16.022;2023-08-20T07:23:38;12.75;;;12.05;;
7813;SDS011;3952;48.364;16.022;2023-08-20T07:26:05;11.80;;;11.07;;
7813;SDS011;3952;48.364;16.022;2023-08-20T07:28:34;12.77;;;11.80;;
7813;SDS011;3952;48.364;16.022;2023-08-20T07:31:20;11.45;;;10.85;;
7813;SDS011;3952;48.364;16.022;2023-08-20T07:33:47;12.32;;;11.50;;
7813;SDS011;3952;48.364;16.022;2023-08-20T07:36:15;11.68;;;10.98;;
7813;SDS011;3952;48.364;16.022;2023-08-20T07:38:43;11.38;;;10.82;;
7813;SDS011;3952;48.364;16.022;2023-08-20T07:41:10;11.02;;;10.43;;
7813;SDS011;3952;48.364;16.022;2023-08-20T07:43:38;10.80;;;10.30;;
7813;SDS011;3952;48.364;16.022;2023-08-20T07:46:06;10.77;;;10.20;;
7813;SDS011;3952;48.364;16.022;2023-08-20T07:48:35;10.93;;;10.32;;
7813;SDS011;3952;48.364;16.022;2023-08-20T07:51:02;11.57;;;10.95;;
7813;SDS011;3952;48.364;16.022;2023-08-20T07:53:30;11.40;;;10.80;;
7813;SDS011;3952;48.364;16.022;2023-08-20T07:55:57;10.60;;;10.10;;
7813;SDS011;3952;48.364;16.022;2023-08-20T07:58:24;11.30;;;10.55;;
7813;SDS011;3952;48.364;16.022;2023-08-20T08:00:51;11.25;;;10.45;;
7813;SDS011;3952;48.364;16.022;2023-08-20T08:03:18;12.10;;;11.45;;
7813;SDS011;3952;48.364;16.022;2023-08-20T08:05:47;12.13;;;11.52;;
7813;SDS011;3952;48.364;16.022;2023-08-20T08:08:15;12.13;;;11.50;;
7813;SDS011;3952;48.364;16.022;2023-08-20T08:10:42;14.10;;;11.75;;
7813;SDS011;3952;48.364;16.022;2023-08-20T08:13:10;12.43;;;11.82;;
7813;SDS011;3952;48.364;16.022;2023-08-20T08:15:38;12.52;;;11.73;;
7813;SDS011;3952;48.364;16.022;2023-08-20T08:18:05;11.93;;;11.05;;
7813;SDS011;3952;48.364;16.022;2023-08-20T08:20:33;12.30;;;11.57;;
7813;SDS011;3952;48.364;16.022;2023-08-20T08:23:02;13.05;;;12.23;;
7813;SDS011;3952;48.364;16.022;2023-08-20T08:25:30;12.00;;;11.35;;
7813;SDS011;3952;48.364;16.022;2023-08-20T08:27:57;13.00;;;12.23;;
7813;SDS011;3952;48.364;16.022;2023-08-20T08:30:24;12.52;;;11.93;;
7813;SDS011;3952;48.364;16.022;2023-08-20T08:32:51;13.25;;;12.15;;
7813;SDS011;3952;48.364;16.022;2023-08-20T08:35:19;12.30;;;11.68;;
7813;SDS011;3952;48.364;16.022;2023-08-20T08:37:46;11.32;;;10.68;;
7813;SDS011;3952;48.364;16.022;2023-08-20T08:40:15;11.88;;;11.18;;
7813;SDS011;3952;48.364;16.022;2023-08-20T08:42:43;12.38;;;11.52;;
7813;SDS011;3952;48.364;16.022;2023-08-20T08:45:14;11.98;;;11.30;;
7813;SDS011;3952;48.364;16.022;2023-08-20T08:47:44;10.95;;;10.35;;
7813;SDS011;3952;48.364;16.022;2023-08-20T08:50:11;11.80;;;11.23;;
7813;SDS011;3952;48.364;16.022;2023-08-20T08:52:39;10.98;;;10.27;;
7813;SDS011;3952;48.364;16.022;2023-08-20T08:55:07;12.20;;;11.45;;
7813;SDS011;3952;48.364;16.022;2023-08-20T08:57:36;20.13;;;12.05;;
7813;SDS011;3952;48.364;16.022;2023-08-20T09:00:04;13.68;;;12.25;;
7813;SDS011;3952;48.364;16.022;2023-08-20T09:02:32;11.70;;;11.10;;
7813;SDS011;3952;48.364;16.022;2023-08-20T09:05:00;11.80;;;11.15;;
7813;SDS011;3952;48.364;16.022;2023-08-20T09:07:27;11.35;;;10.38;;
7813;SDS011;3952;48.364;16.022;2023-08-20T09:09:57;11.82;;;11.25;;
7813;SDS011;3952;48.364;16.022;2023-08-20T09:12:25;11.63;;;10.85;;
7813;SDS011;3952;48.364;16.022;2023-08-20T09:14:54;11.10;;;10.60;;
7813;SDS011;3952;48.364;16.022;2023-08-20T09:17:25;11.30;;;10.57;;
7813;SDS011;3952;48.364;16.022;2023-08-20T09:19:54;11.38;;;10.77;;
7813;SDS011;3952;48.364;16.022;2023-08-20T09:22:22;10.25;;;9.75;;
7813;SDS011;3952;48.364;16.022;2023-08-20T09:24:53;10.15;;;9.63;;
7813;SDS011;3952;48.364;16.022;2023-08-20T09:27:21;10.30;;;9.80;;
7813;SDS011;3952;48.364;16.022;2023-08-20T09:29:49;10.32;;;9.75;;
7813;SDS011;3952;48.364;16.022;2023-08-20T09:32:20;10.10;;;9.50;;
7813;SDS011;3952;48.364;16.022;2023-08-20T09:34:49;10.82;;;10.32;;
7813;SDS011;3952;48.364;16.022;2023-08-20T09:37:19;11.30;;;10.60;;
7813;SDS011;3952;48.364;16.022;2023-08-20T09:39:47;10.90;;;10.20;;
7813;SDS011;3952;48.364;16.022;2023-08-20T09:42:15;10.43;;;9.82;;
7813;SDS011;3952;48.364;16.022;2023-08-20T09:44:43;10.80;;;9.93;;
7813;SDS011;3952;48.364;16.022;2023-08-20T09:47:12;10.80;;;9.80;;
7813;SDS011;3952;48.364;16.022;2023-08-20T09:49:43;9.50;;;9.00;;
7813;SDS011;3952;48.364;16.022;2023-08-20T09:52:12;9.38;;;8.88;;
7813;SDS011;3952;48.364;16.022;2023-08-20T09:54:47;9.98;;;8.95;;
7813;SDS011;3952;48.364;16.022;2023-08-20T09:57:23;9.35;;;8.77;;
7813;SDS011;3952;48.364;16.022;2023-08-20T09:59:57;10.77;;;9.27;;
7813;SDS011;3952;48.364;16.022;2023-08-20T10:02:25;17.60;;;9.77;;
7813;SDS011;3952;48.364;16.022;2023-08-20T10:04:54;20.55;;;9.75;;
7813;SDS011;3952;48.364;16.022;2023-08-20T10:07:22;8.75;;;8.07;;
7813;SDS011;3952;48.364;16.022;2023-08-20T10:09:51;9.43;;;8.80;;
7813;SDS011;3952;48.364;16.022;2023-08-20T10:12:19;9.63;;;8.80;;
7813;SDS011;3952;48.364;16.022;2023-08-20T10:14:46;9.57;;;9.07;;
7813;SDS011;3952;48.364;16.022;2023-08-20T10:17:13;8.65;;;8.25;;
7813;SDS011;3952;48.364;16.022;2023-08-20T10:19:41;9.07;;;8.48;;
7813;SDS011;3952;48.364;16.022;2023-08-20T10:22:10;8.10;;;7.60;;
7813;SDS011;3952;48.364;16.022;2023-08-20T10:24:41;7.93;;;7.22;;
7813;SDS011;3952;48.364;16.022;2023-08-20T10:27:22;9.02;;;8.45;;
7813;SDS011;3952;48.364;16.022;2023-08-20T10:29:52;10.00;;;9.15;;
7813;SDS011;3952;48.364;16.022;2023-08-20T10:32:20;7.78;;;7.38;;
7813;SDS011;3952;48.364;16.022;2023-08-20T10:35:07;9.07;;;8.43;;
7813;SDS011;3952;48.364;16.022;2023-08-20T10:37:36;9.05;;;8.40;;
7813;SDS011;3952;48.364;16.022;2023-08-20T10:40:06;8.45;;;7.75;;
7813;SDS011;3952;48.364;16.022;2023-08-20T10:42:35;8.82;;;8.32;;
7813;SDS011;3952;48.364;16.022;2023-08-20T10:45:09;8.23;;;7.63;;
7813;SDS011;3952;48.364;16.022;2023-08-20T10:47:41;8.60;;;7.95;;
7813;SDS011;3952;48.364;16.022;2023-08-20T10:50:09;8.48;;;8.07;;
7813;SDS011;3952;48.364;16.022;2023-08-20T10:52:43;8.43;;;8.00;;
7813;SDS011;3952;48.364;16.022;2023-08-20T10:55:14;8.70;;;8.20;;
7813;SDS011;3952;48.364;16.022;2023-08-20T10:57:42;8.18;;;7.68;;
7813;SDS011;3952;48.364;16.022;2023-08-20T11:00:10;8.55;;;7.95;;
7813;SDS011;3952;48.364;16.022;2023-08-20T11:02:42;7.43;;;6.93;;
7813;SDS011;3952;48.364;16.022;2023-08-20T11:05:17;7.75;;;7.15;;
7813;SDS011;3952;48.364;16.022;2023-08-20T11:07:48;7.47;;;7.07;;
7813;SDS011;3952;48.364;16.022;2023-08-20T11:10:16;9.23;;;7.65;;
7813;SDS011;3952;48.364;16.022;2023-08-20T11:12:45;7.50;;;6.97;;
7813;SDS011;3952;48.364;16.022;2023-08-20T11:15:13;6.95;;;6.63;;
7813;SDS011;3952;48.364;16.022;2023-08-20T11:17:40;12.65;;;7.40;;
7813;SDS011;3952;48.364;16.022;2023-08-20T11:20:09;7.50;;;6.97;;
7813;SDS011;3952;48.364;16.022;2023-08-20T11:22:38;6.80;;;6.25;;
7813;SDS011;3952;48.364;16.022;2023-08-20T11:25:09;6.53;;;6.10;;
7813;SDS011;3952;48.364;16.022;2023-08-20T11:27:40;5.85;;;5.55;;
7813;SDS011;3952;48.364;16.022;2023-08-20T11:30:08;6.18;;;5.88;;
7813;SDS011;3952;48.364;16.022;2023-08-20T11:32:37;6.78;;;6.47;;
7813;SDS011;3952;48.364;16.022;2023-08-20T11:35:05;7.22;;;6.82;;
7813;SDS011;3952;48.364;16.022;2023-08-20T11:37:33;7.03;;;6.63;;
7813;SDS011;3952;48.364;16.022;2023-08-20T11:40:01;6.90;;;6.50;;
7813;SDS011;3952;48.364;16.022;2023-08-20T11:42:30;6.82;;;6.45;;
7813;SDS011;3952;48.364;16.022;2023-08-20T11:44:57;6.55;;;6.15;;
7813;SDS011;3952;48.364;16.022;2023-08-20T11:47:24;9.88;;;5.65;;
7813;SDS011;3952;48.364;16.022;2023-08-20T11:50:04;11.63;;;6.00;;
7813;SDS011;3952;48.364;16.022;2023-08-20T11:52:32;7.10;;;6.68;;
7813;SDS011;3952;48.364;16.022;2023-08-20T11:55:00;6.57;;;6.07;;
7813;SDS011;3952;48.364;16.022;2023-08-20T11:57:29;5.95;;;5.65;;
7813;SDS011;3952;48.364;16.022;2023-08-20T11:59:59;5.70;;;5.47;;
7813;SDS011;3952;48.364;16.022;2023-08-20T12:02:29;5.68;;;5.43;;
7813;SDS011;3952;48.364;16.022;2023-08-20T12:04:56;11.95;;;6.43;;
7813;SDS011;3952;48.364;16.022;2023-08-20T12:07:24;43.28;;;8.57;;
7813;SDS011;3952;48.364;16.022;2023-08-20T12:09:53;5.80;;;5.40;;
7813;SDS011;3952;48.364;16.022;2023-08-20T12:12:20;6.22;;;5.78;;
7813;SDS011;3952;48.364;16.022;2023-08-20T12:14:49;6.43;;;6.10;;
7813;SDS011;3952;48.364;16.022;2023-08-20T12:17:18;6.03;;;5.72;;
7813;SDS011;3952;48.364;16.022;2023-08-20T12:19:46;5.93;;;5.53;;
7813;SDS011;3952;48.364;16.022;2023-08-20T12:22:13;5.68;;;5.32;;
7813;SDS011;3952;48.364;16.022;2023-08-20T12:24:41;7.75;;;5.40;;
7813;SDS011;3952;48.364;16.022;2023-08-20T12:27:08;6.03;;;5.60;;
7813;SDS011;3952;48.364;16.022;2023-08-20T12:29:35;7.95;;;5.82;;
7813;SDS011;3952;48.364;16.022;2023-08-20T12:32:04;5.93;;;5.63;;
7813;SDS011;3952;48.364;16.022;2023-08-20T12:34:32;6.20;;;5.80;;
7813;SDS011;3952;48.364;16.022;2023-08-20T12:36:59;6.03;;;5.72;;
7813;SDS011;3952;48.364;16.022;2023-08-20T12:39:27;5.70;;;5.50;;
7813;SDS011;3952;48.364;16.022;2023-08-20T12:41:54;6.20;;;5.80;;
7813;SDS011;3952;48.364;16.022;2023-08-20T12:44:22;5.65;;;5.25;;
7813;SDS011;3952;48.364;16.022;2023-08-20T12:46:49;5.88;;;5.30;;
7813;SDS011;3952;48.364;16.022;2023-08-20T12:49:18;5.93;;;5.60;;
7813;SDS011;3952;48.364;16.022;2023-08-20T12:51:45;5.63;;;5.32;;
7813;SDS011;3952;48.364;16.022;2023-08-20T12:54:12;6.72;;;6.25;;
7813;SDS011;3952;48.364;16.022;2023-08-20T12:56:39;6.30;;;5.72;;
7813;SDS011;3952;48.364;16.022;2023-08-20T12:59:07;5.78;;;5.53;;
7813;SDS011;3952;48.364;16.022;2023-08-20T13:01:34;5.35;;;5.13;;
7813;SDS011;3952;48.364;16.022;2023-08-20T13:04:01;6.13;;;5.68;;
7813;SDS011;3952;48.364;16.022;2023-08-20T13:06:31;5.70;;;5.40;;
7813;SDS011;3952;48.364;16.022;2023-08-20T13:08:59;5.70;;;5.30;;
7813;SDS011;3952;48.364;16.022;2023-08-20T13:11:28;5.63;;;5.28;;
7813;SDS011;3952;48.364;16.022;2023-08-20T13:13:57;6.15;;;5.45;;
7813;SDS011;3952;48.364;16.022;2023-08-20T13:16:25;6.18;;;5.88;;
7813;SDS011;3952;48.364;16.022;2023-08-20T13:18:54;6.00;;;5.60;;
7813;SDS011;3952;48.364;16.022;2023-08-20T13:21:22;6.05;;;5.75;;
7813;SDS011;3952;48.364;16.022;2023-08-20T13:23:51;5.72;;;5.53;;
7813;SDS011;3952;48.364;16.022;2023-08-20T13:26:18;5.63;;;5.43;;
7813;SDS011;3952;48.364;16.022;2023-08-20T13:28:47;6.03;;;5.68;;
7813;SDS011;3952;48.364;16.022;2023-08-20T13:31:14;5.90;;;5.60;;
7813;SDS011;3952;48.364;16.022;2023-08-20T13:33:42;5.65;;;5.38;;
7813;SDS011;3952;48.364;16.022;2023-08-20T13:36:09;5.75;;;5.43;;
7813;SDS011;3952;48.364;16.022;2023-08-20T13:38:36;6.43;;;5.82;;
7813;SDS011;3952;48.364;16.022;2023-08-20T13:41:05;5.68;;;5.38;;
7813;SDS011;3952;48.364;16.022;2023-08-20T13:43:32;6.43;;;5.88;;
7813;SDS011;3952;48.364;16.022;2023-08-20T13:45:59;5.97;;;5.47;;
7813;SDS011;3952;48.364;16.022;2023-08-20T13:48:26;5.70;;;5.40;;
7813;SDS011;3952;48.364;16.022;2023-08-20T13:50:53;5.75;;;5.45;;
7813;SDS011;3952;48.364;16.022;2023-08-20T13:53:21;6.15;;;5.72;;
7813;SDS011;3952;48.364;16.022;2023-08-20T13:55:48;6.20;;;5.43;;
7813;SDS011;3952;48.364;16.022;2023-08-20T13:58:16;9.73;;;5.75;;
7813;SDS011;3952;48.364;16.022;2023-08-20T14:00:44;6.95;;;5.85;;
7813;SDS011;3952;48.364;16.022;2023-08-20T14:03:11;6.30;;;5.80;;
7813;SDS011;3952;48.364;16.022;2023-08-20T14:05:38;6.50;;;6.10;;
7813;SDS011;3952;48.364;16.022;2023-08-20T14:08:05;5.38;;;5.15;;
7813;SDS011;3952;48.364;16.022;2023-08-20T14:10:33;6.43;;;5.93;;
7813;SDS011;3952;48.364;16.022;2023-08-20T14:13:00;5.40;;;5.05;;
7813;SDS011;3952;48.364;16.022;2023-08-20T14:15:29;6.43;;;6.00;;
7813;SDS011;3952;48.364;16.022;2023-08-20T14:17:56;5.63;;;5.20;;
7813;SDS011;3952;48.364;16.022;2023-08-20T14:20:24;5.65;;;5.35;;
7813;SDS011;3952;48.364;16.022;2023-08-20T14:22:51;5.55;;;5.22;;
7813;SDS011;3952;48.364;16.022;2023-08-20T14:25:18;6.28;;;5.70;;
7813;SDS011;3952;48.364;16.022;2023-08-20T14:27:45;5.90;;;5.28;;
7813;SDS011;3952;48.364;16.022;2023-08-20T14:30:12;5.78;;;5.38;;
7813;SDS011;3952;48.364;16.022;2023-08-20T14:32:41;6.07;;;5.78;;
7813;SDS011;3952;48.364;16.022;2023-08-20T14:35:09;6.10;;;5.68;;
7813;SDS011;3952;48.364;16.022;2023-08-20T14:37:36;5.93;;;5.63;;
7813;SDS011;3952;48.364;16.022;2023-08-20T14:40:04;6.72;;;6.22;;
7813;SDS011;3952;48.364;16.022;2023-08-20T14:42:32;5.75;;;5.45;;
7813;SDS011;3952;48.364;16.022;2023-08-20T14:44:59;5.88;;;5.57;;
7813;SDS011;3952;48.364;16.022;2023-08-20T14:47:28;6.72;;;6.05;;
7813;SDS011;3952;48.364;16.022;2023-08-20T14:49:56;6.05;;;5.75;;